sensor_id;sensor_type;location;lat;lon;timestamp;P1;durP1;ratioP1;P2;durP2;ratioP2
8978;SDS011;4524;51.364;5.448;2022-08-19T00:00:03;27.30;;;25.00;;
8978;SDS011;4524;51.364;5.448;2022-08-19T00:02:34;30.47;;;27.50;;
8978;SDS011;4524;51.364;5.448;2022-08-19T00:05:03;27.17;;;24.77;;
8978;SDS011;4524;51.364;5.448;2022-08-19T00:07:31;26.83;;;24.60;;
8978;SDS011;4524;51.364;5.448;2022-08-19T00:09:59;23.90;;;21.67;;
8978;SDS011;4524;51.364;5.448;2022-08-19T00:12:27;22.87;;;20.90;;
8978;SDS011;4524;51.364;5.448;2022-08-19T00:14:55;25.80;;;23.60;;
8978;SDS011;4524;51.364;5.448;2022-08-19T00:17:24;26.90;;;24.53;;
8978;SDS011;4524;51.364;5.448;2022-08-19T00:19:52;23.17;;;21.13;;
8978;SDS011;4524;51.364;5.448;2022-08-19T00:22:20;23.07;;;21.10;;
8978;SDS011;4524;51.364;5.448;2022-08-19T00:24:48;23.17;;;21.17;;
8978;SDS011;4524;51.364;5.448;2022-08-19T00:27:16;23.53;;;21.30;;
8978;SDS011;4524;51.364;5.448;2022-08-19T00:29:52;23.37;;;21.10;;
8978;SDS011;4524;51.364;5.448;2022-08-19T00:32:20;24.33;;;22.27;;
8978;SDS011;4524;51.364;5.448;2022-08-19T00:34:50;23.23;;;21.23;;
8978;SDS011;4524;51.364;5.448;2022-08-19T00:37:19;24.37;;;22.27;;
8978;SDS011;4524;51.364;5.448;2022-08-19T00:39:49;25.50;;;23.07;;
8978;SDS011;4524;51.364;5.448;2022-08-19T00:42:18;27.90;;;25.47;;
8978;SDS011;4524;51.364;5.448;2022-08-19T00:44:47;26.77;;;24.37;;
8978;SDS011;4524;51.364;5.448;2022-08-19T00:47:16;26.57;;;24.27;;
8978;SDS011;4524;51.364;5.448;2022-08-19T00:49:45;26.23;;;23.83;;
8978;SDS011;4524;51.364;5.448;2022-08-19T00:52:20;25.80;;;23.53;;
8978;SDS011;4524;51.364;5.448;2022-08-19T00:54:53;24.87;;;22.67;;
8978;SDS011;4524;51.364;5.448;2022-08-19T00:57:22;25.00;;;22.80;;
8978;SDS011;4524;51.364;5.448;2022-08-19T00:59:54;22.53;;;20.47;;
8978;SDS011;4524;51.364;5.448;2022-08-19T01:02:27;23.77;;;21.77;;
8978;SDS011;4524;51.364;5.448;2022-08-19T01:04:56;26.63;;;24.10;;
8978;SDS011;4524;51.364;5.448;2022-08-19T01:07:26;25.93;;;23.57;;
8978;SDS011;4524;51.364;5.448;2022-08-19T01:10:01;25.57;;;23.07;;
8978;SDS011;4524;51.364;5.448;2022-08-19T01:12:29;24.77;;;22.57;;
8978;SDS011;4524;51.364;5.448;2022-08-19T01:14:58;22.70;;;20.50;;
8978;SDS011;4524;51.364;5.448;2022-08-19T01:17:26;24.23;;;22.03;;
8978;SDS011;4524;51.364;5.448;2022-08-19T01:19:55;24.80;;;22.57;;
8978;SDS011;4524;51.364;5.448;2022-08-19T01:22:28;27.07;;;24.40;;
8978;SDS011;4524;51.364;5.448;2022-08-19T01:24:59;24.90;;;22.60;;
8978;SDS011;4524;51.364;5.448;2022-08-19T01:27:36;26.10;;;23.70;;
8978;SDS011;4524;51.364;5.448;2022-08-19T01:30:09;24.63;;;22.30;;
8978;SDS011;4524;51.364;5.448;2022-08-19T01:32:39;25.17;;;22.87;;
8978;SDS011;4524;51.364;5.448;2022-08-19T01:35:07;29.87;;;26.97;;
8978;SDS011;4524;51.364;5.448;2022-08-19T01:37:45;30.27;;;27.00;;
8978;SDS011;4524;51.364;5.448;2022-08-19T01:40:14;29.60;;;26.60;;
8978;SDS011;4524;51.364;5.448;2022-08-19T01:42:43;26.93;;;24.33;;
8978;SDS011;4524;51.364;5.448;2022-08-19T01:45:11;25.00;;;22.30;;
8978;SDS011;4524;51.364;5.448;2022-08-19T01:47:39;25.37;;;23.07;;
8978;SDS011;4524;51.364;5.448;2022-08-19T01:50:08;26.20;;;23.63;;
8978;SDS011;4524;51.364;5.448;2022-08-19T01:52:37;25.63;;;23.20;;
8978;SDS011;4524;51.364;5.448;2022-08-19T01:55:10;28.40;;;25.77;;
8978;SDS011;4524;51.364;5.448;2022-08-19T01:57:41;29.93;;;26.87;;
8978;SDS011;4524;51.364;5.448;2022-08-19T02:00:14;31.47;;;28.17;;
8978;SDS011;4524;51.364;5.448;2022-08-19T02:02:43;30.40;;;27.27;;
8978;SDS011;4524;51.364;5.448;2022-08-19T02:05:12;30.83;;;26.87;;
8978;SDS011;4524;51.364;5.448;2022-08-19T02:07:40;30.03;;;27.03;;
8978;SDS011;4524;51.364;5.448;2022-08-19T02:10:11;32.03;;;28.33;;
8978;SDS011;4524;51.364;5.448;2022-08-19T02:12:42;28.63;;;25.90;;
8978;SDS011;4524;51.364;5.448;2022-08-19T02:15:10;30.77;;;27.57;;
8978;SDS011;4524;51.364;5.448;2022-08-19T02:17:38;29.93;;;26.50;;
8978;SDS011;4524;51.364;5.448;2022-08-19T02:20:07;33.07;;;28.53;;
8978;SDS011;4524;51.364;5.448;2022-08-19T02:22:36;28.03;;;25.23;;
8978;SDS011;4524;51.364;5.448;2022-08-19T02:25:09;25.10;;;22.73;;
8978;SDS011;4524;51.364;5.448;2022-08-19T02:27:38;26.53;;;23.93;;
8978;SDS011;4524;51.364;5.448;2022-08-19T02:30:09;25.77;;;23.07;;
8978;SDS011;4524;51.364;5.448;2022-08-19T02:32:40;26.80;;;24.20;;
8978;SDS011;4524;51.364;5.448;2022-08-19T02:35:10;23.27;;;20.97;;
8978;SDS011;4524;51.364;5.448;2022-08-19T02:37:39;27.30;;;24.63;;
8978;SDS011;4524;51.364;5.448;2022-08-19T02:40:25;27.83;;;24.77;;
8978;SDS011;4524;51.364;5.448;2022-08-19T02:42:53;26.27;;;23.57;;
8978;SDS011;4524;51.364;5.448;2022-08-19T02:45:22;25.47;;;23.00;;
8978;SDS011;4524;51.364;5.448;2022-08-19T02:47:49;28.77;;;25.67;;
8978;SDS011;4524;51.364;5.448;2022-08-19T02:50:17;28.93;;;26.03;;
8978;SDS011;4524;51.364;5.448;2022-08-19T02:52:45;27.83;;;25.03;;
8978;SDS011;4524;51.364;5.448;2022-08-19T02:55:13;27.17;;;24.27;;
8978;SDS011;4524;51.364;5.448;2022-08-19T02:57:43;29.40;;;25.93;;
8978;SDS011;4524;51.364;5.448;2022-08-19T03:00:11;28.57;;;25.67;;
8978;SDS011;4524;51.364;5.448;2022-08-19T03:02:40;30.67;;;27.33;;
8978;SDS011;4524;51.364;5.448;2022-08-19T03:05:08;28.17;;;25.17;;
8978;SDS011;4524;51.364;5.448;2022-08-19T03:07:37;28.47;;;25.57;;
8978;SDS011;4524;51.364;5.448;2022-08-19T03:10:05;28.50;;;25.33;;
8978;SDS011;4524;51.364;5.448;2022-08-19T03:12:35;30.03;;;26.97;;
8978;SDS011;4524;51.364;5.448;2022-08-19T03:15:06;33.23;;;29.50;;
8978;SDS011;4524;51.364;5.448;2022-08-19T03:17:35;34.17;;;29.83;;
8978;SDS011;4524;51.364;5.448;2022-08-19T03:20:03;30.13;;;26.87;;
8978;SDS011;4524;51.364;5.448;2022-08-19T03:22:32;33.40;;;28.93;;
8978;SDS011;4524;51.364;5.448;2022-08-19T03:24:59;31.77;;;28.50;;
8978;SDS011;4524;51.364;5.448;2022-08-19T03:27:27;34.93;;;29.27;;
8978;SDS011;4524;51.364;5.448;2022-08-19T03:29:59;31.40;;;28.07;;
8978;SDS011;4524;51.364;5.448;2022-08-19T03:32:29;32.67;;;29.27;;
8978;SDS011;4524;51.364;5.448;2022-08-19T03:34:58;31.43;;;28.03;;
8978;SDS011;4524;51.364;5.448;2022-08-19T03:37:27;37.97;;;31.53;;
8978;SDS011;4524;51.364;5.448;2022-08-19T03:39:54;32.13;;;28.73;;
8978;SDS011;4524;51.364;5.448;2022-08-19T03:42:22;39.03;;;32.13;;
8978;SDS011;4524;51.364;5.448;2022-08-19T03:45:12;34.40;;;30.47;;
8978;SDS011;4524;51.364;5.448;2022-08-19T03:47:42;34.57;;;29.80;;
8978;SDS011;4524;51.364;5.448;2022-08-19T03:50:10;40.33;;;32.77;;
8978;SDS011;4524;51.364;5.448;2022-08-19T03:52:38;32.37;;;28.87;;
8978;SDS011;4524;51.364;5.448;2022-08-19T03:55:12;32.93;;;29.47;;
8978;SDS011;4524;51.364;5.448;2022-08-19T03:57:40;34.17;;;30.27;;
8978;SDS011;4524;51.364;5.448;2022-08-19T04:00:08;30.40;;;27.20;;
8978;SDS011;4524;51.364;5.448;2022-08-19T04:02:39;37.87;;;31.43;;
8978;SDS011;4524;51.364;5.448;2022-08-19T04:05:26;31.07;;;27.73;;
8978;SDS011;4524;51.364;5.448;2022-08-19T04:07:54;35.80;;;31.87;;
8978;SDS011;4524;51.364;5.448;2022-08-19T04:10:25;34.70;;;29.97;;
8978;SDS011;4524;51.364;5.448;2022-08-19T04:12:53;43.13;;;34.50;;
8978;SDS011;4524;51.364;5.448;2022-08-19T04:15:21;34.53;;;30.80;;
8978;SDS011;4524;51.364;5.448;2022-08-19T04:17:51;32.93;;;29.20;;
8978;SDS011;4524;51.364;5.448;2022-08-19T04:20:19;37.97;;;32.20;;
8978;SDS011;4524;51.364;5.448;2022-08-19T04:22:47;38.37;;;30.80;;
8978;SDS011;4524;51.364;5.448;2022-08-19T04:25:15;39.47;;;33.17;;
8978;SDS011;4524;51.364;5.448;2022-08-19T04:27:43;42.50;;;34.67;;
8978;SDS011;4524;51.364;5.448;2022-08-19T04:30:12;37.80;;;32.23;;
8978;SDS011;4524;51.364;5.448;2022-08-19T04:32:41;45.47;;;36.80;;
8978;SDS011;4524;51.364;5.448;2022-08-19T04:35:12;45.87;;;36.57;;
8978;SDS011;4524;51.364;5.448;2022-08-19T04:37:44;41.67;;;34.80;;
8978;SDS011;4524;51.364;5.448;2022-08-19T04:40:12;41.23;;;34.17;;
8978;SDS011;4524;51.364;5.448;2022-08-19T04:42:58;35.67;;;31.93;;
8978;SDS011;4524;51.364;5.448;2022-08-19T04:45:27;33.17;;;29.57;;
8978;SDS011;4524;51.364;5.448;2022-08-19T04:48:04;36.80;;;30.97;;
8978;SDS011;4524;51.364;5.448;2022-08-19T04:50:54;36.83;;;31.33;;
8978;SDS011;4524;51.364;5.448;2022-08-19T04:53:24;40.53;;;33.37;;
8978;SDS011;4524;51.364;5.448;2022-08-19T04:55:54;42.67;;;36.10;;
8978;SDS011;4524;51.364;5.448;2022-08-19T04:58:24;43.47;;;36.03;;
8978;SDS011;4524;51.364;5.448;2022-08-19T05:00:53;36.03;;;31.23;;
8978;SDS011;4524;51.364;5.448;2022-08-19T05:03:22;36.00;;;32.10;;
8978;SDS011;4524;51.364;5.448;2022-08-19T05:05:57;33.17;;;29.63;;
8978;SDS011;4524;51.364;5.448;2022-08-19T05:08:24;39.63;;;33.63;;
8978;SDS011;4524;51.364;5.448;2022-08-19T05:10:57;38.57;;;33.40;;
8978;SDS011;4524;51.364;5.448;2022-08-19T05:13:25;40.63;;;32.20;;
8978;SDS011;4524;51.364;5.448;2022-08-19T05:15:54;44.13;;;36.13;;
8978;SDS011;4524;51.364;5.448;2022-08-19T05:18:24;38.03;;;33.20;;
8978;SDS011;4524;51.364;5.448;2022-08-19T05:21:13;48.40;;;37.53;;
8978;SDS011;4524;51.364;5.448;2022-08-19T05:24:00;35.03;;;30.03;;
8978;SDS011;4524;51.364;5.448;2022-08-19T05:26:29;37.57;;;31.50;;
8978;SDS011;4524;51.364;5.448;2022-08-19T05:28:57;37.30;;;31.90;;
8978;SDS011;4524;51.364;5.448;2022-08-19T05:31:25;34.27;;;30.53;;
8978;SDS011;4524;51.364;5.448;2022-08-19T05:33:53;42.27;;;34.10;;
8978;SDS011;4524;51.364;5.448;2022-08-19T05:36:23;38.63;;;32.93;;
8978;SDS011;4524;51.364;5.448;2022-08-19T05:38:51;35.80;;;30.57;;
8978;SDS011;4524;51.364;5.448;2022-08-19T05:41:20;35.97;;;29.90;;
8978;SDS011;4524;51.364;5.448;2022-08-19T05:43:49;41.23;;;35.13;;
8978;SDS011;4524;51.364;5.448;2022-08-19T05:46:17;40.13;;;32.03;;
8978;SDS011;4524;51.364;5.448;2022-08-19T05:48:53;43.07;;;34.43;;
8978;SDS011;4524;51.364;5.448;2022-08-19T05:51:24;42.80;;;34.80;;
8978;SDS011;4524;51.364;5.448;2022-08-19T05:53:54;47.63;;;37.33;;
8978;SDS011;4524;51.364;5.448;2022-08-19T05:56:22;45.77;;;35.47;;
8978;SDS011;4524;51.364;5.448;2022-08-19T05:58:51;45.17;;;35.73;;
8978;SDS011;4524;51.364;5.448;2022-08-19T06:01:20;51.23;;;37.77;;
8978;SDS011;4524;51.364;5.448;2022-08-19T06:03:48;39.07;;;30.70;;
8978;SDS011;4524;51.364;5.448;2022-08-19T06:06:16;46.00;;;35.53;;
8978;SDS011;4524;51.364;5.448;2022-08-19T06:08:46;40.33;;;33.73;;
8978;SDS011;4524;51.364;5.448;2022-08-19T06:11:18;45.63;;;33.90;;
8978;SDS011;4524;51.364;5.448;2022-08-19T06:13:48;45.30;;;35.13;;
8978;SDS011;4524;51.364;5.448;2022-08-19T06:16:25;43.27;;;34.70;;
8978;SDS011;4524;51.364;5.448;2022-08-19T06:18:54;41.03;;;33.30;;
8978;SDS011;4524;51.364;5.448;2022-08-19T06:21:24;47.50;;;35.07;;
8978;SDS011;4524;51.364;5.448;2022-08-19T06:23:55;40.23;;;32.30;;
8978;SDS011;4524;51.364;5.448;2022-08-19T06:26:24;40.97;;;32.90;;
8978;SDS011;4524;51.364;5.448;2022-08-19T06:28:52;37.97;;;32.13;;
8978;SDS011;4524;51.364;5.448;2022-08-19T06:31:21;41.57;;;32.27;;
8978;SDS011;4524;51.364;5.448;2022-08-19T06:33:51;37.40;;;30.20;;
8978;SDS011;4524;51.364;5.448;2022-08-19T06:36:20;39.37;;;31.10;;
8978;SDS011;4524;51.364;5.448;2022-08-19T06:38:59;41.17;;;32.17;;
8978;SDS011;4524;51.364;5.448;2022-08-19T06:41:28;38.60;;;32.67;;
8978;SDS011;4524;51.364;5.448;2022-08-19T06:43:57;38.23;;;30.00;;
8978;SDS011;4524;51.364;5.448;2022-08-19T06:46:25;37.73;;;28.47;;
8978;SDS011;4524;51.364;5.448;2022-08-19T06:48:54;38.97;;;28.07;;
8978;SDS011;4524;51.364;5.448;2022-08-19T06:51:22;34.83;;;28.13;;
8978;SDS011;4524;51.364;5.448;2022-08-19T06:53:57;34.90;;;27.23;;
8978;SDS011;4524;51.364;5.448;2022-08-19T06:56:27;37.67;;;27.87;;
8978;SDS011;4524;51.364;5.448;2022-08-19T06:59:00;32.80;;;26.93;;
8978;SDS011;4524;51.364;5.448;2022-08-19T07:01:29;31.33;;;25.00;;
8978;SDS011;4524;51.364;5.448;2022-08-19T07:04:01;30.20;;;24.00;;
8978;SDS011;4524;51.364;5.448;2022-08-19T07:06:29;29.23;;;25.27;;
8978;SDS011;4524;51.364;5.448;2022-08-19T07:09:11;34.13;;;26.40;;
8978;SDS011;4524;51.364;5.448;2022-08-19T07:11:44;28.63;;;23.47;;
8978;SDS011;4524;51.364;5.448;2022-08-19T07:14:13;30.00;;;23.50;;
8978;SDS011;4524;51.364;5.448;2022-08-19T07:16:45;33.33;;;25.57;;
8978;SDS011;4524;51.364;5.448;2022-08-19T07:19:14;27.90;;;21.67;;
8978;SDS011;4524;51.364;5.448;2022-08-19T07:21:44;31.60;;;23.27;;
8978;SDS011;4524;51.364;5.448;2022-08-19T07:24:14;28.30;;;20.63;;
8978;SDS011;4524;51.364;5.448;2022-08-19T07:26:43;30.07;;;21.17;;
8978;SDS011;4524;51.364;5.448;2022-08-19T07:29:17;29.87;;;21.50;;
8978;SDS011;4524;51.364;5.448;2022-08-19T07:31:49;25.93;;;18.83;;
8978;SDS011;4524;51.364;5.448;2022-08-19T07:34:19;27.43;;;19.63;;
8978;SDS011;4524;51.364;5.448;2022-08-19T07:36:47;30.07;;;21.50;;
8978;SDS011;4524;51.364;5.448;2022-08-19T07:39:18;24.97;;;18.37;;
8978;SDS011;4524;51.364;5.448;2022-08-19T07:41:50;24.33;;;19.57;;
8978;SDS011;4524;51.364;5.448;2022-08-19T07:44:18;27.93;;;21.37;;
8978;SDS011;4524;51.364;5.448;2022-08-19T07:46:48;28.53;;;22.10;;
8978;SDS011;4524;51.364;5.448;2022-08-19T07:49:18;23.80;;;20.47;;
8978;SDS011;4524;51.364;5.448;2022-08-19T07:51:48;24.70;;;19.07;;
8978;SDS011;4524;51.364;5.448;2022-08-19T07:54:19;27.60;;;18.83;;
8978;SDS011;4524;51.364;5.448;2022-08-19T07:56:48;23.60;;;17.80;;
8978;SDS011;4524;51.364;5.448;2022-08-19T07:59:18;21.73;;;17.63;;
8978;SDS011;4524;51.364;5.448;2022-08-19T08:01:47;23.63;;;18.20;;
8978;SDS011;4524;51.364;5.448;2022-08-19T08:04:16;24.13;;;18.27;;
8978;SDS011;4524;51.364;5.448;2022-08-19T08:07:02;22.07;;;18.67;;
8978;SDS011;4524;51.364;5.448;2022-08-19T08:09:50;21.90;;;18.50;;
8978;SDS011;4524;51.364;5.448;2022-08-19T08:12:24;25.30;;;22.17;;
8978;SDS011;4524;51.364;5.448;2022-08-19T08:15:05;21.67;;;19.17;;
8978;SDS011;4524;51.364;5.448;2022-08-19T08:17:38;24.33;;;18.43;;
8978;SDS011;4524;51.364;5.448;2022-08-19T08:20:16;30.90;;;25.20;;
8978;SDS011;4524;51.364;5.448;2022-08-19T08:22:46;23.20;;;19.97;;
8978;SDS011;4524;51.364;5.448;2022-08-19T08:25:34;29.07;;;25.07;;
8978;SDS011;4524;51.364;5.448;2022-08-19T08:28:03;23.20;;;20.70;;
8978;SDS011;4524;51.364;5.448;2022-08-19T08:30:31;25.23;;;22.07;;
8978;SDS011;4524;51.364;5.448;2022-08-19T08:33:02;24.43;;;21.93;;
8978;SDS011;4524;51.364;5.448;2022-08-19T08:35:31;30.10;;;25.30;;
8978;SDS011;4524;51.364;5.448;2022-08-19T08:37:59;27.00;;;24.10;;
8978;SDS011;4524;51.364;5.448;2022-08-19T08:40:31;28.37;;;25.47;;
8978;SDS011;4524;51.364;5.448;2022-08-19T08:43:06;27.07;;;24.20;;
8978;SDS011;4524;51.364;5.448;2022-08-19T08:45:42;29.87;;;26.50;;
8978;SDS011;4524;51.364;5.448;2022-08-19T08:48:20;30.17;;;27.27;;
8978;SDS011;4524;51.364;5.448;2022-08-19T08:50:54;28.60;;;25.80;;
8978;SDS011;4524;51.364;5.448;2022-08-19T08:53:23;29.40;;;26.47;;
8978;SDS011;4524;51.364;5.448;2022-08-19T08:56:02;27.93;;;25.23;;
8978;SDS011;4524;51.364;5.448;2022-08-19T08:58:36;27.33;;;24.60;;
8978;SDS011;4524;51.364;5.448;2022-08-19T09:01:11;27.23;;;24.43;;
8978;SDS011;4524;51.364;5.448;2022-08-19T09:03:40;26.90;;;24.30;;
8978;SDS011;4524;51.364;5.448;2022-08-19T09:06:13;25.43;;;22.77;;
8978;SDS011;4524;51.364;5.448;2022-08-19T09:08:48;25.60;;;22.97;;
8978;SDS011;4524;51.364;5.448;2022-08-19T09:11:40;25.20;;;22.63;;
8978;SDS011;4524;51.364;5.448;2022-08-19T09:14:31;27.90;;;24.60;;
8978;SDS011;4524;51.364;5.448;2022-08-19T09:17:17;24.83;;;22.43;;
8978;SDS011;4524;51.364;5.448;2022-08-19T09:19:49;23.70;;;21.33;;
8978;SDS011;4524;51.364;5.448;2022-08-19T09:22:18;23.93;;;21.40;;
8978;SDS011;4524;51.364;5.448;2022-08-19T09:24:51;21.13;;;19.00;;
8978;SDS011;4524;51.364;5.448;2022-08-19T09:27:22;24.43;;;19.90;;
8978;SDS011;4524;51.364;5.448;2022-08-19T09:30:10;18.70;;;16.23;;
8978;SDS011;4524;51.364;5.448;2022-08-19T09:32:41;17.10;;;15.00;;
8978;SDS011;4524;51.364;5.448;2022-08-19T09:35:10;19.30;;;17.33;;
8978;SDS011;4524;51.364;5.448;2022-08-19T09:37:39;20.77;;;16.73;;
8978;SDS011;4524;51.364;5.448;2022-08-19T09:40:08;18.23;;;15.63;;
8978;SDS011;4524;51.364;5.448;2022-08-19T09:42:39;20.63;;;14.17;;
8978;SDS011;4524;51.364;5.448;2022-08-19T09:45:16;16.63;;;12.73;;
8978;SDS011;4524;51.364;5.448;2022-08-19T09:47:46;17.47;;;13.13;;
8978;SDS011;4524;51.364;5.448;2022-08-19T09:50:15;16.83;;;14.43;;
8978;SDS011;4524;51.364;5.448;2022-08-19T09:52:44;20.13;;;13.30;;
8978;SDS011;4524;51.364;5.448;2022-08-19T09:55:23;13.60;;;11.57;;
8978;SDS011;4524;51.364;5.448;2022-08-19T09:58:02;15.00;;;11.00;;
8978;SDS011;4524;51.364;5.448;2022-08-19T10:00:30;23.13;;;13.00;;
8978;SDS011;4524;51.364;5.448;2022-08-19T10:02:59;13.50;;;11.23;;
8978;SDS011;4524;51.364;5.448;2022-08-19T10:05:28;15.57;;;11.90;;
8978;SDS011;4524;51.364;5.448;2022-08-19T10:08:14;16.20;;;10.70;;
8978;SDS011;4524;51.364;5.448;2022-08-19T10:10:46;20.00;;;12.37;;
8978;SDS011;4524;51.364;5.448;2022-08-19T10:13:17;17.70;;;12.00;;
8978;SDS011;4524;51.364;5.448;2022-08-19T10:15:48;18.20;;;11.80;;
8978;SDS011;4524;51.364;5.448;2022-08-19T10:18:18;16.20;;;11.50;;
8978;SDS011;4524;51.364;5.448;2022-08-19T10:20:47;13.00;;;10.40;;
8978;SDS011;4524;51.364;5.448;2022-08-19T10:23:18;16.27;;;10.00;;
8978;SDS011;4524;51.364;5.448;2022-08-19T10:25:48;14.20;;;10.30;;
8978;SDS011;4524;51.364;5.448;2022-08-19T10:28:20;13.57;;;9.60;;
8978;SDS011;4524;51.364;5.448;2022-08-19T10:30:49;14.50;;;9.43;;
8978;SDS011;4524;51.364;5.448;2022-08-19T10:33:17;15.50;;;9.60;;
8978;SDS011;4524;51.364;5.448;2022-08-19T10:36:05;12.40;;;9.83;;
8978;SDS011;4524;51.364;5.448;2022-08-19T10:38:35;13.40;;;9.57;;
8978;SDS011;4524;51.364;5.448;2022-08-19T10:41:16;12.30;;;9.33;;
8978;SDS011;4524;51.364;5.448;2022-08-19T10:43:46;11.93;;;10.17;;
8978;SDS011;4524;51.364;5.448;2022-08-19T10:46:15;11.93;;;9.27;;
8978;SDS011;4524;51.364;5.448;2022-08-19T10:48:44;13.50;;;10.23;;
8978;SDS011;4524;51.364;5.448;2022-08-19T10:51:12;12.13;;;10.30;;
8978;SDS011;4524;51.364;5.448;2022-08-19T10:53:59;12.67;;;9.57;;
8978;SDS011;4524;51.364;5.448;2022-08-19T10:56:32;12.87;;;9.93;;
8978;SDS011;4524;51.364;5.448;2022-08-19T10:59:20;12.63;;;9.47;;
8978;SDS011;4524;51.364;5.448;2022-08-19T11:01:52;13.60;;;9.93;;
8978;SDS011;4524;51.364;5.448;2022-08-19T11:04:22;12.40;;;10.50;;
8978;SDS011;4524;51.364;5.448;2022-08-19T11:06:55;11.60;;;9.73;;
8978;SDS011;4524;51.364;5.448;2022-08-19T11:09:23;14.90;;;11.00;;
8978;SDS011;4524;51.364;5.448;2022-08-19T11:11:59;15.07;;;11.43;;
8978;SDS011;4524;51.364;5.448;2022-08-19T11:14:31;13.67;;;11.37;;
8978;SDS011;4524;51.364;5.448;2022-08-19T11:17:01;14.90;;;12.00;;
8978;SDS011;4524;51.364;5.448;2022-08-19T11:19:30;14.63;;;11.43;;
8978;SDS011;4524;51.364;5.448;2022-08-19T11:21:58;13.27;;;11.93;;
8978;SDS011;4524;51.364;5.448;2022-08-19T11:24:29;18.50;;;14.37;;
8978;SDS011;4524;51.364;5.448;2022-08-19T11:27:03;20.80;;;17.17;;
8978;SDS011;4524;51.364;5.448;2022-08-19T11:29:33;19.03;;;17.00;;
8978;SDS011;4524;51.364;5.448;2022-08-19T11:32:03;19.53;;;17.10;;
8978;SDS011;4524;51.364;5.448;2022-08-19T11:34:32;19.13;;;17.10;;
8978;SDS011;4524;51.364;5.448;2022-08-19T11:37:01;17.97;;;15.80;;
8978;SDS011;4524;51.364;5.448;2022-08-19T11:39:32;17.90;;;15.57;;
8978;SDS011;4524;51.364;5.448;2022-08-19T11:42:01;15.77;;;14.13;;
8978;SDS011;4524;51.364;5.448;2022-08-19T11:44:52;16.57;;;12.47;;
8978;SDS011;4524;51.364;5.448;2022-08-19T11:47:20;16.73;;;14.93;;
8978;SDS011;4524;51.364;5.448;2022-08-19T11:49:48;16.03;;;14.13;;
8978;SDS011;4524;51.364;5.448;2022-08-19T11:52:17;17.57;;;14.40;;
8978;SDS011;4524;51.364;5.448;2022-08-19T11:54:45;14.90;;;13.40;;
8978;SDS011;4524;51.364;5.448;2022-08-19T11:57:13;16.50;;;13.50;;
8978;SDS011;4524;51.364;5.448;2022-08-19T11:59:47;16.77;;;13.77;;
8978;SDS011;4524;51.364;5.448;2022-08-19T12:02:17;15.93;;;13.90;;
8978;SDS011;4524;51.364;5.448;2022-08-19T12:04:46;18.47;;;16.07;;
8978;SDS011;4524;51.364;5.448;2022-08-19T12:07:14;15.50;;;13.90;;
8978;SDS011;4524;51.364;5.448;2022-08-19T12:09:42;19.97;;;17.37;;
8978;SDS011;4524;51.364;5.448;2022-08-19T12:12:11;20.33;;;18.23;;
8978;SDS011;4524;51.364;5.448;2022-08-19T12:14:39;19.57;;;17.23;;
8978;SDS011;4524;51.364;5.448;2022-08-19T12:17:07;18.30;;;16.40;;
8978;SDS011;4524;51.364;5.448;2022-08-19T12:19:37;18.60;;;16.70;;
8978;SDS011;4524;51.364;5.448;2022-08-19T12:22:05;18.00;;;15.93;;
8978;SDS011;4524;51.364;5.448;2022-08-19T12:24:33;18.67;;;15.13;;
8978;SDS011;4524;51.364;5.448;2022-08-19T12:27:02;16.67;;;15.07;;
8978;SDS011;4524;51.364;5.448;2022-08-19T12:29:30;17.77;;;15.47;;
8978;SDS011;4524;51.364;5.448;2022-08-19T12:31:58;16.67;;;14.10;;
8978;SDS011;4524;51.364;5.448;2022-08-19T12:34:28;16.53;;;14.83;;
8978;SDS011;4524;51.364;5.448;2022-08-19T12:36:58;16.50;;;14.73;;
8978;SDS011;4524;51.364;5.448;2022-08-19T12:39:33;16.80;;;14.13;;
8978;SDS011;4524;51.364;5.448;2022-08-19T12:42:02;12.57;;;11.27;;
8978;SDS011;4524;51.364;5.448;2022-08-19T12:44:31;14.73;;;10.93;;
8978;SDS011;4524;51.364;5.448;2022-08-19T12:46:59;12.10;;;10.90;;
8978;SDS011;4524;51.364;5.448;2022-08-19T12:49:33;11.23;;;10.13;;
8978;SDS011;4524;51.364;5.448;2022-08-19T12:52:22;11.67;;;9.50;;
8978;SDS011;4524;51.364;5.448;2022-08-19T12:54:51;10.00;;;9.00;;
8978;SDS011;4524;51.364;5.448;2022-08-19T12:57:20;9.40;;;8.53;;
8978;SDS011;4524;51.364;5.448;2022-08-19T12:59:58;9.60;;;8.60;;
8978;SDS011;4524;51.364;5.448;2022-08-19T13:02:30;9.70;;;8.43;;
8978;SDS011;4524;51.364;5.448;2022-08-19T13:05:05;9.60;;;8.70;;
8978;SDS011;4524;51.364;5.448;2022-08-19T13:07:38;10.33;;;9.33;;
8978;SDS011;4524;51.364;5.448;2022-08-19T13:10:07;9.37;;;8.37;;
8978;SDS011;4524;51.364;5.448;2022-08-19T13:12:37;10.50;;;9.40;;
8978;SDS011;4524;51.364;5.448;2022-08-19T13:15:05;10.83;;;9.50;;
8978;SDS011;4524;51.364;5.448;2022-08-19T13:17:36;10.23;;;9.23;;
8978;SDS011;4524;51.364;5.448;2022-08-19T13:20:05;9.93;;;8.93;;
8978;SDS011;4524;51.364;5.448;2022-08-19T13:22:35;9.57;;;8.50;;
8978;SDS011;4524;51.364;5.448;2022-08-19T13:25:05;11.97;;;9.83;;
8978;SDS011;4524;51.364;5.448;2022-08-19T13:27:34;11.07;;;9.80;;
8978;SDS011;4524;51.364;5.448;2022-08-19T13:30:03;10.77;;;9.67;;
8978;SDS011;4524;51.364;5.448;2022-08-19T13:32:50;9.60;;;8.70;;
8978;SDS011;4524;51.364;5.448;2022-08-19T13:35:36;8.93;;;7.77;;
8978;SDS011;4524;51.364;5.448;2022-08-19T13:38:04;7.43;;;6.63;;
8978;SDS011;4524;51.364;5.448;2022-08-19T13:40:39;7.07;;;6.47;;
8978;SDS011;4524;51.364;5.448;2022-08-19T13:43:08;7.10;;;6.40;;
8978;SDS011;4524;51.364;5.448;2022-08-19T13:45:48;7.17;;;6.47;;
8978;SDS011;4524;51.364;5.448;2022-08-19T13:48:18;7.07;;;6.07;;
8978;SDS011;4524;51.364;5.448;2022-08-19T13:50:46;6.43;;;5.83;;
8978;SDS011;4524;51.364;5.448;2022-08-19T13:53:14;7.00;;;6.40;;
8978;SDS011;4524;51.364;5.448;2022-08-19T13:55:44;7.30;;;5.83;;
8978;SDS011;4524;51.364;5.448;2022-08-19T13:58:13;7.07;;;5.90;;
8978;SDS011;4524;51.364;5.448;2022-08-19T14:00:42;6.93;;;6.00;;
8978;SDS011;4524;51.364;5.448;2022-08-19T14:03:12;8.07;;;5.67;;
8978;SDS011;4524;51.364;5.448;2022-08-19T14:05:40;8.63;;;6.83;;
8978;SDS011;4524;51.364;5.448;2022-08-19T14:08:08;7.37;;;6.00;;
8978;SDS011;4524;51.364;5.448;2022-08-19T14:10:36;7.60;;;6.80;;
8978;SDS011;4524;51.364;5.448;2022-08-19T14:13:05;10.10;;;6.50;;
8978;SDS011;4524;51.364;5.448;2022-08-19T14:15:34;7.90;;;7.10;;
8978;SDS011;4524;51.364;5.448;2022-08-19T14:18:03;7.67;;;7.00;;
8978;SDS011;4524;51.364;5.448;2022-08-19T14:20:33;9.47;;;6.80;;
8978;SDS011;4524;51.364;5.448;2022-08-19T14:23:02;7.50;;;5.83;;
8978;SDS011;4524;51.364;5.448;2022-08-19T14:25:31;7.13;;;6.43;;
8978;SDS011;4524;51.364;5.448;2022-08-19T14:28:00;6.50;;;5.77;;
8978;SDS011;4524;51.364;5.448;2022-08-19T14:30:30;7.83;;;5.90;;
8978;SDS011;4524;51.364;5.448;2022-08-19T14:33:00;6.47;;;5.90;;
8978;SDS011;4524;51.364;5.448;2022-08-19T14:35:31;8.43;;;7.60;;
8978;SDS011;4524;51.364;5.448;2022-08-19T14:38:00;7.03;;;6.00;;
8978;SDS011;4524;51.364;5.448;2022-08-19T14:40:29;7.70;;;6.20;;
8978;SDS011;4524;51.364;5.448;2022-08-19T14:42:58;7.97;;;6.03;;
8978;SDS011;4524;51.364;5.448;2022-08-19T14:45:31;6.97;;;5.37;;
8978;SDS011;4524;51.364;5.448;2022-08-19T14:48:02;8.37;;;6.20;;
8978;SDS011;4524;51.364;5.448;2022-08-19T14:50:30;7.20;;;6.50;;
8978;SDS011;4524;51.364;5.448;2022-08-19T14:52:59;6.80;;;6.13;;
8978;SDS011;4524;51.364;5.448;2022-08-19T14:55:39;7.83;;;7.10;;
8978;SDS011;4524;51.364;5.448;2022-08-19T14:58:08;6.83;;;6.23;;
8978;SDS011;4524;51.364;5.448;2022-08-19T15:00:57;8.60;;;6.90;;
8978;SDS011;4524;51.364;5.448;2022-08-19T15:03:26;7.00;;;6.40;;
8978;SDS011;4524;51.364;5.448;2022-08-19T15:05:55;6.63;;;6.03;;
8978;SDS011;4524;51.364;5.448;2022-08-19T15:08:24;6.57;;;5.90;;
8978;SDS011;4524;51.364;5.448;2022-08-19T15:10:53;8.97;;;6.90;;
8978;SDS011;4524;51.364;5.448;2022-08-19T15:13:21;7.97;;;6.17;;
8978;SDS011;4524;51.364;5.448;2022-08-19T15:15:50;7.13;;;6.43;;